createdAt,value
2018-10-03T00:03:50.681Z,12.10
2018-10-03T00:08:54.311Z,12.00
2018-10-03T00:13:58.755Z,12.10
2018-10-03T00:19:02.134Z,12.10
2018-10-03T00:24:05.571Z,12.10
2018-10-03T00:29:09.103Z,11.90
2018-10-03T00:34:30.590Z,11.80
2018-10-03T00:39:36.187Z,11.90
2018-10-03T00:44:40.671Z,12.00
2018-10-03T00:49:44.960Z,12.00
2018-10-03T00:54:50.551Z,12.00
2018-10-03T00:59:59.128Z,12.00
2018-10-03T01:05:03.331Z,12.00
2018-10-03T01:10:09.184Z,11.90
2018-10-03T01:15:16.549Z,11.90
2018-10-03T01:20:22.479Z,11.90
2018-10-03T01:25:26.082Z,11.90
2018-10-03T01:30:33.505Z,11.90
2018-10-03T01:35:41.781Z,11.80
2018-10-03T01:40:49.717Z,11.70
2018-10-03T01:45:53.327Z,11.60
2018-10-03T01:50:56.842Z,11.60
2018-10-03T01:56:01.235Z,11.70
2018-10-03T02:01:04.663Z,11.60
2018-10-03T02:06:10.806Z,11.70
2018-10-03T02:11:16.397Z,11.70
2018-10-03T02:16:19.885Z,11.80
2018-10-03T02:21:31.457Z,11.80
2018-10-03T02:26:34.920Z,11.90
2018-10-03T02:31:40.588Z,11.70
2018-10-03T02:36:44.679Z,11.70
2018-10-03T02:41:51.160Z,11.80
2018-10-03T02:46:55.625Z,11.70
2018-10-03T02:52:02.258Z,11.70
2018-10-03T02:57:09.171Z,11.80
2018-10-03T03:02:14.383Z,11.80
2018-10-03T03:07:18.042Z,11.80
2018-10-03T03:12:27.439Z,11.90
2018-10-03T03:17:34.713Z,11.90
2018-10-03T03:22:39.151Z,11.90
2018-10-03T03:27:42.727Z,12.00
2018-10-03T03:32:49.591Z,12.10
2018-10-03T03:37:55.063Z,12.00
2018-10-03T03:43:00.530Z,11.90
2018-10-03T03:48:11.008Z,11.90
2018-10-03T03:53:14.448Z,11.90
2018-10-03T03:58:20.863Z,11.90
2018-10-03T04:03:28.046Z,11.90
2018-10-03T04:08:32.611Z,12.00
2018-10-03T04:13:53.762Z,12.00
2018-10-03T04:18:58.417Z,12.00
2018-10-03T04:24:04.629Z,11.90
2018-10-03T04:29:14.657Z,12.10
2018-10-03T04:34:22.777Z,12.20
2018-10-03T04:39:32.155Z,12.30
2018-10-03T04:44:37.032Z,12.30
2018-10-03T04:49:44.615Z,12.40
2018-10-03T04:54:48.077Z,12.30
2018-10-03T04:59:55.522Z,12.20
2018-10-03T05:04:58.985Z,12.10
2018-10-03T05:10:02.451Z,12.20
2018-10-03T05:15:05.968Z,12.00
2018-10-03T05:20:09.358Z,11.90
2018-10-03T05:25:12.781Z,12.00
2018-10-03T05:30:16.115Z,12.00
2018-10-03T05:35:19.636Z,11.90
2018-10-03T05:40:22.963Z,12.00
2018-10-03T05:45:26.436Z,12.00
2018-10-03T05:50:29.891Z,12.10
2018-10-03T05:55:33.242Z,12.20
2018-10-03T06:00:36.831Z,12.20
2018-10-03T06:05:40.341Z,12.30
2018-10-03T06:10:43.783Z,12.40
2018-10-03T06:15:47.394Z,12.50
2018-10-03T06:20:50.762Z,12.50
2018-10-03T06:25:54.180Z,12.70
2018-10-03T06:30:57.604Z,12.70
2018-10-03T06:36:02.006Z,12.80
2018-10-03T06:41:07.024Z,12.90
2018-10-03T06:46:11.339Z,13.00
2018-10-03T06:51:14.665Z,13.00
2018-10-03T06:56:18.077Z,12.90
2018-10-03T07:01:21.574Z,13.10
2018-10-03T07:06:25.082Z,13.30
2018-10-03T07:11:29.332Z,13.50
2018-10-03T07:16:32.680Z,13.30
2018-10-03T07:21:41.065Z,13.60
2018-10-03T07:26:44.496Z,13.80
2018-10-03T07:31:48.123Z,14.10
2018-10-03T07:36:51.552Z,14.20
2018-10-03T07:41:55.000Z,14.30
2018-10-03T07:46:58.532Z,14.30
2018-10-03T07:52:01.900Z,14.50
2018-10-03T07:57:05.652Z,14.70
2018-10-03T08:13:32.586Z,15.10
2018-10-03T08:53:22.853Z,16.30
2018-10-03T08:58:31.690Z,17.50
2018-10-03T09:09:37.565Z,17.00
2018-10-03T09:20:29.033Z,17.20
2018-10-03T09:42:13.342Z,16.60
2018-10-03T09:47:22.161Z,17.70
2018-10-03T09:52:27.257Z,18.20
2018-10-03T09:57:33.975Z,18.30
2018-10-03T10:02:37.474Z,18.30
2018-10-03T10:07:42.670Z,18.00
2018-10-03T10:24:07.008Z,17.40
2018-10-03T10:29:11.847Z,18.60
2018-10-03T10:34:16.682Z,19.20
2018-10-03T10:39:21.260Z,19.50
2018-10-03T10:44:27.125Z,20.20
2018-10-03T10:49:30.527Z,19.90
2018-10-03T10:54:34.044Z,19.40
2018-10-03T10:59:37.538Z,19.10
2018-10-03T11:04:40.889Z,18.30
2018-10-03T11:10:08.518Z,18.00
2018-10-03T11:20:37.468Z,19.70
2018-10-03T11:25:54.979Z,19.80
2018-10-03T11:31:05.798Z,20.30
2018-10-03T11:36:11.102Z,19.90
2018-10-03T11:41:25.640Z,19.20
2018-10-03T12:05:41.453Z,18.60
2018-10-03T12:10:59.675Z,18.60
2018-10-03T12:16:07.017Z,19.10
2018-10-03T12:21:21.400Z,19.20
2018-10-03T12:26:25.172Z,19.50
2018-10-03T12:31:57.416Z,19.70
2018-10-03T12:47:48.321Z,19.80
2018-10-03T12:53:13.743Z,20.20
2018-10-03T12:58:26.814Z,20.40
2018-10-03T13:03:42.681Z,20.30
2018-10-03T13:08:46.088Z,20.50
2018-10-03T13:13:49.594Z,20.80
2018-10-03T13:18:55.990Z,20.20
2018-10-03T13:23:59.408Z,19.40
2018-10-03T13:29:03.825Z,19.90
2018-10-03T13:34:08.943Z,19.60
2018-10-03T14:01:24.031Z,19.70
2018-10-03T14:06:30.367Z,19.90
2018-10-03T14:13:15.285Z,19.30
2018-10-03T14:18:19.324Z,18.70
2018-10-03T14:23:25.358Z,18.90
2018-10-03T14:28:28.809Z,19.40
2018-10-03T14:33:32.155Z,19.20
2018-10-03T14:38:38.309Z,19.00
2018-10-03T14:43:41.794Z,18.70
2018-10-03T14:48:45.908Z,18.80
2018-10-03T14:53:50.836Z,18.60
2018-10-03T14:58:54.325Z,18.50
2018-10-03T15:03:57.763Z,18.40
2018-10-03T15:09:02.868Z,18.10
2018-10-03T15:14:06.402Z,18.10
2018-10-03T15:19:10.490Z,18.20
2018-10-03T15:24:14.352Z,17.90
2018-10-03T15:29:24.780Z,18.10
2018-10-03T15:34:29.237Z,18.10
2018-10-03T15:39:32.812Z,17.60
2018-10-03T15:44:36.806Z,17.00
2018-10-03T15:49:44.340Z,16.80
2018-10-03T15:54:47.831Z,16.70
2018-10-03T15:59:51.158Z,16.50
2018-10-03T16:04:54.453Z,16.40
2018-10-03T16:09:57.747Z,16.30
2018-10-03T16:15:01.171Z,16.30
2018-10-03T16:20:05.253Z,16.10
2018-10-03T16:25:08.723Z,15.70
2018-10-03T16:30:12.135Z,15.80
2018-10-03T16:35:15.552Z,15.80
2018-10-03T16:40:18.964Z,15.90
2018-10-03T16:45:22.410Z,15.80
2018-10-03T16:50:25.831Z,15.60
2018-10-03T16:55:30.063Z,15.50
2018-10-03T17:00:33.566Z,15.50
2018-10-03T17:05:37.051Z,15.20
2018-10-03T17:10:40.473Z,15.00
2018-10-03T17:15:43.791Z,14.90
2018-10-03T17:20:47.165Z,14.60
2018-10-03T17:25:50.600Z,14.40
2018-10-03T17:36:03.762Z,13.90
2018-10-03T17:41:09.971Z,13.70
2018-10-03T17:46:13.264Z,13.50
2018-10-03T17:51:16.715Z,13.30
2018-10-03T17:56:20.106Z,13.20
2018-10-03T18:01:24.863Z,13.00
2018-10-03T18:06:29.669Z,12.90
2018-10-03T18:11:33.099Z,12.70
2018-10-03T18:16:36.820Z,12.50
2018-10-03T18:21:40.248Z,12.30
2018-10-03T18:26:43.619Z,12.30
2018-10-03T18:31:46.941Z,12.20
2018-10-03T18:36:50.321Z,12.00
2018-10-03T18:41:54.099Z,12.00
2018-10-03T18:46:57.527Z,11.80
2018-10-03T18:52:01.026Z,11.60
2018-10-03T18:57:04.523Z,11.60
2018-10-03T19:02:07.923Z,11.50
2018-10-03T19:07:13.018Z,11.40
2018-10-03T19:12:16.882Z,11.00
2018-10-03T19:17:23.714Z,10.90
2018-10-03T19:22:33.212Z,10.80
2018-10-03T19:27:36.833Z,10.70
2018-10-03T19:32:40.950Z,10.60
2018-10-03T19:37:44.452Z,10.60
2018-10-03T19:42:50.562Z,10.40
2018-10-03T19:47:54.444Z,10.50
2018-10-03T19:52:57.921Z,10.30
2018-10-03T19:58:01.505Z,10.30
2018-10-03T20:03:04.969Z,10.40
2018-10-03T20:08:08.383Z,10.30
2018-10-03T20:13:11.991Z,10.20
2018-10-03T20:18:15.433Z,10.10
2018-10-03T20:23:19.386Z,9.90
2018-10-03T20:28:22.847Z,9.90
2018-10-03T20:33:27.318Z,9.80
2018-10-03T20:38:32.731Z,9.80
2018-10-03T20:43:36.103Z,9.70
2018-10-03T20:48:40.287Z,9.70
2018-10-03T20:53:46.657Z,9.50
2018-10-03T20:58:50.052Z,9.40
2018-10-03T21:03:55.013Z,9.50
2018-10-03T21:08:58.542Z,9.40
2018-10-03T21:14:02.718Z,9.30
2018-10-03T21:19:07.498Z,9.20
2018-10-03T21:24:11.395Z,9.20
2018-10-03T21:29:14.839Z,9.20
2018-10-03T21:34:19.346Z,9.00
2018-10-03T21:39:23.740Z,8.90
2018-10-03T21:44:27.118Z,8.90
2018-10-03T21:49:30.530Z,8.80
2018-10-03T21:54:34.070Z,8.70
2018-10-03T21:59:38.418Z,8.70
2018-10-03T22:04:41.743Z,8.70
2018-10-03T22:09:45.200Z,8.70
2018-10-03T22:14:50.226Z,8.80
2018-10-03T22:19:55.467Z,8.60
2018-10-03T22:24:59.861Z,8.40
2018-10-03T22:30:04.383Z,8.40
2018-10-03T22:35:07.834Z,8.40
2018-10-03T22:40:11.146Z,8.50
2018-10-03T22:45:14.484Z,8.50
2018-10-03T22:50:18.655Z,8.30
2018-10-03T22:55:22.075Z,8.30
2018-10-03T23:00:25.544Z,8.20
2018-10-03T23:05:28.804Z,8.10
2018-10-03T23:10:32.177Z,7.90
2018-10-03T23:15:35.711Z,7.90
2018-10-03T23:20:39.050Z,7.90
2018-10-03T23:25:42.363Z,7.90
2018-10-03T23:30:45.648Z,8.00
2018-10-03T23:35:48.957Z,8.10
2018-10-03T23:40:52.266Z,8.10
2018-10-03T23:45:55.572Z,8.10
2018-10-03T23:50:58.910Z,8.00
2018-10-03T23:56:02.205Z,8.00
